Zeynalabdin Tagiyev — 9HLD8 — position and weather

sailwx.info

Track history (hours):
 
Tides and Currents Weather Stations Pressure Air Temp Water Temp Dewpoint Dewpoint Depression Visibility Wind Speed Wind Dir Waves Ship Positions

Zeynalabdin Tagiyev

Last reported at 2015-Mar-28 20:33 UTC. Time now 2015-Mar-29 23:50 UTC.
Position N 48°48' W 005°50'.

Length 140 m; draft 4.7 m.

Type: Cargo ship. MMSI: 256107000.

Date/timePositionNaut miles runAvg speedWind from/ knotsBaromVisibWave heightAir tempDewpointWater temp
2015-Mar-28 20:33N 48°48' W 005°50'264 7.8
2015-Mar-27 10:33N 50°34' E 000°25'1110.3
2015-Mar-27 09:30N 50°38' E 000°40'1010.4
2015-Mar-27 08:33N 50°43' E 000°53'19 9.5
2015-Mar-27 06:31N 50°55' E 001°17'8 8.4
2015-Mar-27 05:34N 51°01' E 001°26'7 7.3
2015-Mar-27 04:34N 51°05' E 001°35'8 7.6
2015-Mar-27 03:33N 51°03' E 001°47'8 7.2
2015-Mar-27 02:23N 51°03' E 002°01'7 8.2
2015-Mar-27 01:33N 51°03' E 002°11'6 5.6
2015-Mar-27 00:32N 51°03' E 002°20'3 2.5
2015-Mar-26 23:31N 51°03' E 002°17'0 0.0
2015-Mar-26 22:33N 51°03' E 002°17'0 0.0
2015-Mar-26 21:31N 51°03' E 002°17'0 0.0
2015-Mar-26 20:33N 51°03' E 002°17'0 0.0
2015-Mar-26 19:29N 51°03' E 002°17'0 0.0
2015-Mar-26 18:33N 51°03' E 002°17'0 0.0
2015-Mar-26 17:33N 51°03' E 002°17'0 0.0
2015-Mar-26 16:31N 51°03' E 002°17'0 0.0
2015-Mar-26 15:21N 51°03' E 002°17'0 0.0
2015-Mar-26 14:33N 51°03' E 002°17'0 0.0
2015-Mar-26 13:32N 51°03' E 002°17'0 0.0
2015-Mar-26 12:33N 51°03' E 002°17'0 0.0
2015-Mar-26 11:27N 51°03' E 002°17'0 0.0
2015-Mar-26 10:16N 51°03' E 002°17'0 0.0
2015-Mar-26 09:32N 51°03' E 002°17'0 0.0
2015-Mar-26 08:32N 51°03' E 002°17'0 0.0
2015-Mar-26 07:30N 51°03' E 002°17'0 0.0
2015-Mar-26 06:15N 51°03' E 002°17'0 0.0
2015-Mar-26 05:25N 51°03' E 002°17'0 0.0
2015-Mar-26 03:30N 51°03' E 002°17'0 0.0
2015-Mar-26 02:22N 51°03' E 002°17'0 0.0
2015-Mar-26 01:33N 51°03' E 002°17'0 0.0
2015-Mar-26 00:17N 51°03' E 002°17'0 0.0
2015-Mar-25 22:32N 51°03' E 002°17'0 0.0
2015-Mar-25 21:33N 51°03' E 002°17'0 0.0
2015-Mar-25 20:33N 51°03' E 002°17'0 0.0
2015-Mar-25 19:29N 51°03' E 002°17'0 0.0
2015-Mar-25 18:33N 51°03' E 002°17'0 0.0
2015-Mar-25 17:32N 51°03' E 002°17'3 2.6
2015-Mar-25 16:32N 51°03' E 002°20'5 5.4
2015-Mar-25 15:33N 51°03' E 002°12'1311.3
2015-Mar-25 14:25N 51°02' E 001°52'2 2.4
2015-Mar-25 13:34N 51°02' E 001°48'9 8.8
2015-Mar-25 12:34N 51°06' E 001°36'1212.1
2015-Mar-25 11:33N 51°15' E 001°48'1212.2
2015-Mar-25 10:34N 51°25' E 001°59'1511.4
2015-Mar-25 09:14N 51°37' E 002°15'413 9.7
2015-Mar-23 14:33N 58°10' E 005°52'9 9.0
2015-Mar-23 13:33N 58°19' E 005°57'7 7.3
2015-Mar-23 12:33N 58°26' E 005°59'0 0.0
2015-Mar-23 11:26N 58°26' E 005°59'0 0.0
2015-Mar-23 10:27N 58°26' E 005°59'0 0.0
2015-Mar-23 09:33N 58°26' E 005°59'0 0.0
2015-Mar-23 08:27N 58°26' E 005°59'0 0.0
2015-Mar-23 07:27N 58°26' E 005°59'0 0.0
2015-Mar-23 06:32N 58°26' E 005°59'0 0.0
2015-Mar-23 05:32N 58°26' E 005°59'0 0.0
2015-Mar-23 04:26N 58°26' E 005°59'0 0.0
2015-Mar-23 03:32N 58°26' E 005°59'0 0.0
2015-Mar-23 02:32N 58°26' E 005°59'0 0.0
2015-Mar-23 01:32N 58°26' E 005°59'0 0.0
2015-Mar-23 00:24N 58°26' E 005°59'0 0.0
2015-Mar-22 23:22N 58°26' E 005°59'0 0.0
2015-Mar-22 22:29N 58°26' E 005°59'0 0.0
2015-Mar-22 21:23N 58°26' E 005°59'0 0.0
2015-Mar-22 20:29N 58°26' E 005°59'0 0.0
2015-Mar-22 19:23N 58°26' E 005°59'0 0.0
2015-Mar-22 18:28N 58°26' E 005°59'0 0.0
2015-Mar-22 17:22N 58°26' E 005°59'0 0.0
2015-Mar-22 16:09N 58°26' E 005°59'0 0.0
2015-Mar-22 15:26N 58°26' E 005°59'0 0.0
2015-Mar-22 14:33N 58°26' E 005°59'0 0.0
2015-Mar-22 13:32N 58°26' E 005°59'0 0.0
2015-Mar-22 12:32N 58°26' E 005°59'0 0.0
2015-Mar-22 11:31N 58°26' E 005°59'0 0.0
2015-Mar-22 10:19N 58°26' E 005°59'0 0.0
2015-Mar-22 09:14N 58°26' E 005°59'0 0.0
2015-Mar-22 08:32N 58°26' E 005°59'0 0.0
2015-Mar-22 07:14N 58°26' E 005°59'0 0.0
2015-Mar-22 06:19N 58°26' E 005°59'0 0.0
2015-Mar-22 05:28N 58°26' E 005°59'0 0.0
2015-Mar-22 04:22N 58°26' E 005°59'0 0.0
2015-Mar-22 03:22N 58°26' E 005°59'0 0.0
2015-Mar-22 02:18N 58°26' E 005°59'0 0.0
2015-Mar-22 01:30N 58°26' E 005°59'0 0.0
2015-Mar-22 00:31N 58°26' E 005°59'0 0.0
2015-Mar-21 23:32N 58°26' E 005°59'0 0.0
2015-Mar-21 22:32N 58°26' E 005°59'0 0.0
2015-Mar-21 21:32N 58°26' E 005°59'0 0.0
2015-Mar-21 20:32N 58°26' E 005°59'0 0.0
2015-Mar-21 19:31N 58°26' E 005°59'0 0.0
2015-Mar-21 18:31N 58°26' E 005°59'0 0.0
2015-Mar-21 17:31N 58°26' E 005°59'0 0.0
2015-Mar-21 16:32N 58°26' E 005°59'0 0.0
2015-Mar-21 15:32N 58°26' E 005°59'0 0.0
2015-Mar-21 14:33N 58°26' E 005°59'0 0.0
2015-Mar-21 13:33N 58°26' E 005°59'0 0.0
2015-Mar-21 12:31N 58°26' E 005°59'0 0.0
2015-Mar-21 11:33N 58°26' E 005°59'0 0.0
2015-Mar-21 10:33N 58°26' E 005°59'0 0.0
2015-Mar-21 09:33N 58°26' E 005°59'0 0.0
2015-Mar-21 08:33N 58°26' E 005°59'0 0.0
2015-Mar-21 07:33N 58°26' E 005°59'0 0.0
2015-Mar-21 06:34N 58°26' E 005°59'0 0.0
2015-Mar-21 05:31N 58°26' E 005°59'0 0.0
2015-Mar-21 04:31N 58°26' E 005°59'0 0.0
2015-Mar-21 03:29N 58°26' E 005°59'0 0.0
2015-Mar-21 02:32N 58°26' E 005°59'0 0.0
2015-Mar-21 01:31N 58°26' E 005°59'0 0.0
2015-Mar-21 00:31N 58°26' E 005°59'0 0.0
2015-Mar-20 23:32N 58°26' E 005°59'0 0.0
2015-Mar-20 22:33N 58°26' E 005°59'0 0.0
2015-Mar-20 21:33N 58°26' E 005°59'0 0.0
2015-Mar-20 20:31N 58°26' E 005°59'0 0.0
2015-Mar-20 19:31N 58°26' E 005°59'0 0.0
2015-Mar-20 18:26N 58°26' E 005°59'0 0.0
2015-Mar-20 17:32N 58°26' E 005°59'0 0.0
2015-Mar-20 16:27N 58°26' E 005°59'0 0.0
2015-Mar-20 15:33N 58°26' E 005°59'0 0.0
2015-Mar-20 14:32N 58°26' E 005°59'0 0.0
2015-Mar-20 13:32N 58°26' E 005°59'0 0.0
2015-Mar-20 12:31N 58°26' E 005°59'0 0.0
2015-Mar-20 11:33N 58°26' E 005°59'0 0.0
2015-Mar-20 10:32N 58°26' E 005°59'0 0.2
2015-Mar-20 09:33N 58°26' E 005°59'5 4.9
2015-Mar-20 08:34N 58°21' E 005°60'6 5.9
2015-Mar-20 07:33N 58°16' E 005°54'5 4.9
2015-Mar-20 06:33N 58°20' E 005°58'2 2.4
2015-Mar-20 05:33N 58°23' E 005°58'5 5.2
2015-Mar-20 04:33N 58°18' E 005°54'7 7.4
2015-Mar-20 03:33N 58°11' E 005°53'  
Track history (hours):
 
Tides and Currents Weather Stations Pressure Air Temp Water Temp Dewpoint Dewpoint Depression Visibility Wind Speed Wind Dir Waves Ship Positions

Zeynalabdin Tagiyev

Last reported at 2015-Mar-28 20:33 UTC. Time now 2015-Mar-29 23:50 UTC.
Position N 48°48' W 005°50'.

Length 140 m; draft 4.7 m.

Type: Cargo ship. MMSI: 256107000.

Date/timePositionNaut miles runAvg speedWind from/ knotsBaromVisibWave heightAir tempDewpointWater temp
2015-Mar-28 20:33N 48°48' W 005°50'264 7.8
2015-Mar-27 10:33N 50°34' E 000°25'1110.3
2015-Mar-27 09:30N 50°38' E 000°40'1010.4
2015-Mar-27 08:33N 50°43' E 000°53'19 9.5
2015-Mar-27 06:31N 50°55' E 001°17'8 8.4
2015-Mar-27 05:34N 51°01' E 001°26'7 7.3
2015-Mar-27 04:34N 51°05' E 001°35'8 7.6
2015-Mar-27 03:33N 51°03' E 001°47'8 7.2
2015-Mar-27 02:23N 51°03' E 002°01'7 8.2
2015-Mar-27 01:33N 51°03' E 002°11'6 5.6
2015-Mar-27 00:32N 51°03' E 002°20'3 2.5
2015-Mar-26 23:31N 51°03' E 002°17'0 0.0
2015-Mar-26 22:33N 51°03' E 002°17'0 0.0
2015-Mar-26 21:31N 51°03' E 002°17'0 0.0
2015-Mar-26 20:33N 51°03' E 002°17'0 0.0
2015-Mar-26 19:29N 51°03' E 002°17'0 0.0
2015-Mar-26 18:33N 51°03' E 002°17'0 0.0
2015-Mar-26 17:33N 51°03' E 002°17'0 0.0
2015-Mar-26 16:31N 51°03' E 002°17'0 0.0
2015-Mar-26 15:21N 51°03' E 002°17'0 0.0
2015-Mar-26 14:33N 51°03' E 002°17'0 0.0
2015-Mar-26 13:32N 51°03' E 002°17'0 0.0
2015-Mar-26 12:33N 51°03' E 002°17'0 0.0
2015-Mar-26 11:27N 51°03' E 002°17'0 0.0
2015-Mar-26 10:16N 51°03' E 002°17'0 0.0
2015-Mar-26 09:32N 51°03' E 002°17'0 0.0
2015-Mar-26 08:32N 51°03' E 002°17'0 0.0
2015-Mar-26 07:30N 51°03' E 002°17'0 0.0
2015-Mar-26 06:15N 51°03' E 002°17'0 0.0
2015-Mar-26 05:25N 51°03' E 002°17'0 0.0
2015-Mar-26 03:30N 51°03' E 002°17'0 0.0
2015-Mar-26 02:22N 51°03' E 002°17'0 0.0
2015-Mar-26 01:33N 51°03' E 002°17'0 0.0
2015-Mar-26 00:17N 51°03' E 002°17'0 0.0
2015-Mar-25 22:32N 51°03' E 002°17'0 0.0
2015-Mar-25 21:33N 51°03' E 002°17'0 0.0
2015-Mar-25 20:33N 51°03' E 002°17'0 0.0
2015-Mar-25 19:29N 51°03' E 002°17'0 0.0
2015-Mar-25 18:33N 51°03' E 002°17'0 0.0
2015-Mar-25 17:32N 51°03' E 002°17'3 2.6
2015-Mar-25 16:32N 51°03' E 002°20'5 5.4
2015-Mar-25 15:33N 51°03' E 002°12'1311.3
2015-Mar-25 14:25N 51°02' E 001°52'2 2.4
2015-Mar-25 13:34N 51°02' E 001°48'9 8.8
2015-Mar-25 12:34N 51°06' E 001°36'1212.1
2015-Mar-25 11:33N 51°15' E 001°48'1212.2
2015-Mar-25 10:34N 51°25' E 001°59'1511.4
2015-Mar-25 09:14N 51°37' E 002°15'413 9.7
2015-Mar-23 14:33N 58°10' E 005°52'9 9.0
2015-Mar-23 13:33N 58°19' E 005°57'7 7.3
2015-Mar-23 12:33N 58°26' E 005°59'0 0.0
2015-Mar-23 11:26N 58°26' E 005°59'0 0.0
2015-Mar-23 10:27N 58°26' E 005°59'0 0.0
2015-Mar-23 09:33N 58°26' E 005°59'0 0.0
2015-Mar-23 08:27N 58°26' E 005°59'0 0.0
2015-Mar-23 07:27N 58°26' E 005°59'0 0.0
2015-Mar-23 06:32N 58°26' E 005°59'0 0.0
2015-Mar-23 05:32N 58°26' E 005°59'0 0.0
2015-Mar-23 04:26N 58°26' E 005°59'0 0.0
2015-Mar-23 03:32N 58°26' E 005°59'0 0.0
2015-Mar-23 02:32N 58°26' E 005°59'0 0.0
2015-Mar-23 01:32N 58°26' E 005°59'0 0.0
2015-Mar-23 00:24N 58°26' E 005°59'0 0.0
2015-Mar-22 23:22N 58°26' E 005°59'0 0.0
2015-Mar-22 22:29N 58°26' E 005°59'0 0.0
2015-Mar-22 21:23N 58°26' E 005°59'0 0.0
2015-Mar-22 20:29N 58°26' E 005°59'0 0.0
2015-Mar-22 19:23N 58°26' E 005°59'0 0.0
2015-Mar-22 18:28N 58°26' E 005°59'0 0.0
2015-Mar-22 17:22N 58°26' E 005°59'0 0.0
2015-Mar-22 16:09N 58°26' E 005°59'0 0.0
2015-Mar-22 15:26N 58°26' E 005°59'0 0.0
2015-Mar-22 14:33N 58°26' E 005°59'0 0.0
2015-Mar-22 13:32N 58°26' E 005°59'0 0.0
2015-Mar-22 12:32N 58°26' E 005°59'0 0.0
2015-Mar-22 11:31N 58°26' E 005°59'0 0.0
2015-Mar-22 10:19N 58°26' E 005°59'0 0.0
2015-Mar-22 09:14N 58°26' E 005°59'0 0.0
2015-Mar-22 08:32N 58°26' E 005°59'0 0.0
2015-Mar-22 07:14N 58°26' E 005°59'0 0.0
2015-Mar-22 06:19N 58°26' E 005°59'0 0.0
2015-Mar-22 05:28N 58°26' E 005°59'0 0.0
2015-Mar-22 04:22N 58°26' E 005°59'0 0.0
2015-Mar-22 03:22N 58°26' E 005°59'0 0.0
2015-Mar-22 02:18N 58°26' E 005°59'0 0.0
2015-Mar-22 01:30N 58°26' E 005°59'0 0.0
2015-Mar-22 00:31N 58°26' E 005°59'0 0.0
2015-Mar-21 23:32N 58°26' E 005°59'0 0.0
2015-Mar-21 22:32N 58°26' E 005°59'0 0.0
2015-Mar-21 21:32N 58°26' E 005°59'0 0.0
2015-Mar-21 20:32N 58°26' E 005°59'0 0.0
2015-Mar-21 19:31N 58°26' E 005°59'0 0.0
2015-Mar-21 18:31N 58°26' E 005°59'0 0.0
2015-Mar-21 17:31N 58°26' E 005°59'0 0.0
2015-Mar-21 16:32N 58°26' E 005°59'0 0.0
2015-Mar-21 15:32N 58°26' E 005°59'0 0.0
2015-Mar-21 14:33N 58°26' E 005°59'0 0.0
2015-Mar-21 13:33N 58°26' E 005°59'0 0.0
2015-Mar-21 12:31N 58°26' E 005°59'0 0.0
2015-Mar-21 11:33N 58°26' E 005°59'0 0.0
2015-Mar-21 10:33N 58°26' E 005°59'0 0.0
2015-Mar-21 09:33N 58°26' E 005°59'0 0.0
2015-Mar-21 08:33N 58°26' E 005°59'0 0.0
2015-Mar-21 07:33N 58°26' E 005°59'0 0.0
2015-Mar-21 06:34N 58°26' E 005°59'0 0.0
2015-Mar-21 05:31N 58°26' E 005°59'0 0.0
2015-Mar-21 04:31N 58°26' E 005°59'0 0.0
2015-Mar-21 03:29N 58°26' E 005°59'0 0.0
2015-Mar-21 02:32N 58°26' E 005°59'0 0.0
2015-Mar-21 01:31N 58°26' E 005°59'0 0.0
2015-Mar-21 00:31N 58°26' E 005°59'0 0.0
2015-Mar-20 23:32N 58°26' E 005°59'0 0.0
2015-Mar-20 22:33N 58°26' E 005°59'0 0.0
2015-Mar-20 21:33N 58°26' E 005°59'0 0.0
2015-Mar-20 20:31N 58°26' E 005°59'0 0.0
2015-Mar-20 19:31N 58°26' E 005°59'0 0.0
2015-Mar-20 18:26N 58°26' E 005°59'0 0.0
2015-Mar-20 17:32N 58°26' E 005°59'0 0.0
2015-Mar-20 16:27N 58°26' E 005°59'0 0.0
2015-Mar-20 15:33N 58°26' E 005°59'0 0.0
2015-Mar-20 14:32N 58°26' E 005°59'0 0.0
2015-Mar-20 13:32N 58°26' E 005°59'0 0.0
2015-Mar-20 12:31N 58°26' E 005°59'0 0.0
2015-Mar-20 11:33N 58°26' E 005°59'0 0.0
2015-Mar-20 10:32N 58°26' E 005°59'0 0.2
2015-Mar-20 09:33N 58°26' E 005°59'5 4.9
2015-Mar-20 08:34N 58°21' E 005°60'6 5.9
2015-Mar-20 07:33N 58°16' E 005°54'5 4.9
2015-Mar-20 06:33N 58°20' E 005°58'2 2.4
2015-Mar-20 05:33N 58°23' E 005°58'5 5.2
2015-Mar-20 04:33N 58°18' E 005°54'7 7.4
2015-Mar-20 03:33N 58°11' E 005°53'  

Dump ship's entire track history